Time;durP1;ratioP1;P1;durP2;ratioP2;P2;SDS_P1;SDS_P2;PMS_P1;PMS_P2;Temp;Humidity;BMP_temperature;BMP_pressure;BME280_temperature;BME280_humidity;BME280_pressure;Samples;Min_cycle;Max_cycle;Signal;HPM_P1;HPM_P2
2023/04/18 00:01:01;;;;;;;10.77;7.43;;;6.90;99.90;6.00;101633;;;;583205;242;24040;-76
2023/04/18 00:03:29;;;;;;;12.50;7.70;;;6.90;99.90;6.00;101639;;;;583466;242;24049;-76
2023/04/18 00:05:58;;;;;;;10.33;6.80;;;6.80;99.90;5.90;101638;;;;583402;242;24100;-76
2023/04/18 00:08:25;;;;;;;19.20;8.67;;;6.70;99.90;5.90;101637;;;;583380;242;24065;-76
2023/04/18 00:10:53;;;;;;;16.50;8.37;;;6.70;99.90;5.80;101640;;;;583229;242;24098;-75
2023/04/18 00:13:22;;;;;;;18.67;12.30;;;6.60;99.90;5.80;101643;;;;578201;242;35177;-75
2023/04/18 00:15:53;;;;;;;23.17;14.70;;;6.50;99.90;5.70;101638;;;;578202;242;35234;-74
2023/04/18 00:18:18;;;;;;;18.75;14.70;;;6.50;99.90;5.70;101642;;;;577942;242;35165;-78
2023/04/18 00:20:46;;;;;;;16.67;10.33;;;6.50;99.90;5.70;101637;;;;583264;242;24091;-77
2023/04/18 00:23:15;;;;;;;12.33;9.40;;;6.50;99.90;5.70;101642;;;;583149;242;24096;-78
2023/04/18 00:25:42;;;;;;;15.87;9.33;;;6.50;99.90;5.70;101641;;;;583246;242;24054;-79
2023/04/18 00:28:10;;;;;;;11.77;8.70;;;6.50;99.90;5.70;101645;;;;583001;242;24059;-78
2023/04/18 00:30:41;;;;;;;12.73;8.27;;;6.50;99.90;5.70;101643;;;;582918;242;24054;-78
2023/04/18 00:33:06;;;;;;;13.40;9.53;;;6.50;99.90;5.70;101650;;;;582719;242;24053;-79
2023/04/18 00:35:34;;;;;;;22.37;15.20;;;6.50;99.90;5.70;101655;;;;577888;242;35176;-79
2023/04/18 00:38:02;;;;;;;15.77;11.90;;;6.50;99.90;5.80;101649;;;;582884;242;25387;-78
2023/04/18 00:40:29;;;;;;;15.77;10.33;;;6.60;99.90;5.80;101638;;;;582867;242;24034;-78
2023/04/18 00:42:57;;;;;;;12.50;8.40;;;6.60;99.90;5.80;101637;;;;582906;242;24060;-78
2023/04/18 00:45:25;;;;;;;22.60;15.77;;;6.60;99.90;5.80;101638;;;;577460;242;35105;-74
2023/04/18 00:47:53;;;;;;;20.62;16.55;;;6.60;99.90;5.90;101643;;;;581748;242;35185;-77
2023/04/18 00:50:25;;;;;;;18.07;11.03;;;6.70;99.90;5.90;101646;;;;582532;242;24076;-78
2023/04/18 00:52:52;;;;;;;13.57;10.73;;;6.70;99.90;5.90;101643;;;;582410;242;24077;-77
2023/04/18 00:55:20;;;;;;;14.73;9.50;;;6.80;99.90;5.90;101636;;;;580701;242;24148;-76
2023/04/18 00:57:49;;;;;;;13.33;9.37;;;6.80;99.90;6.00;101638;;;;582906;242;24085;-78
2023/04/18 01:00:16;;;;;;;16.53;10.30;;;6.80;99.90;6.00;101642;;;;582151;242;24098;-78
2023/04/18 01:02:41;;;;;;;15.73;9.60;;;6.80;99.90;6.00;101642;;;;582426;240;24077;-75
2023/04/18 01:05:09;;;;;;;15.00;10.33;;;6.80;99.90;6.00;101641;;;;584350;242;25114;-75
2023/04/18 01:07:39;;;;;;;11.37;8.77;;;6.80;99.90;6.00;101648;;;;583953;242;24038;-76
2023/04/18 01:10:05;;;;;;;19.30;9.23;;;6.80;99.90;6.00;101642;;;;583496;242;24106;-74
2023/04/18 01:12:32;;;;;;;14.53;9.47;;;6.90;99.90;6.10;101651;;;;583731;242;24047;-78
2023/04/18 01:15:02;;;;;;;18.77;10.13;;;6.90;99.90;6.10;101648;;;;583508;242;25095;-78
2023/04/18 01:17:29;;;;;;;19.37;10.57;;;6.90;99.90;6.10;101645;;;;583369;242;24069;-79
2023/04/18 01:20:00;;;;;;;17.73;11.07;;;6.90;99.90;6.10;101644;;;;583643;242;24055;-79
2023/04/18 01:22:26;;;;;;;14.43;9.97;;;6.90;99.90;6.10;101646;;;;583077;242;24093;-76
2023/04/18 01:24:54;;;;;;;22.00;10.90;;;6.90;99.90;6.20;101649;;;;583197;242;24084;-77
2023/04/18 01:27:22;;;;;;;20.80;11.13;;;7.00;99.90;6.20;101651;;;;583224;242;24108;-75
2023/04/18 01:29:50;;;;;;;19.30;11.20;;;7.00;99.90;6.20;101655;;;;583113;242;24063;-76
2023/04/18 01:32:19;;;;;;;16.87;10.70;;;7.00;99.90;6.20;101651;;;;583164;242;24065;-79
2023/04/18 01:34:47;;;;;;;15.17;11.77;;;7.00;99.90;6.20;101651;;;;583262;242;24147;-77
2023/04/18 01:37:16;;;;;;;14.17;11.00;;;7.00;99.90;6.20;101646;;;;583174;242;24168;-76
2023/04/18 01:39:43;;;;;;;14.40;10.27;;;7.00;99.90;6.20;101651;;;;587320;242;24067;-76
2023/04/18 01:42:11;;;;;;;15.07;10.20;;;7.00;99.90;6.30;101647;;;;582770;242;24066;-76
2023/04/18 01:44:43;;;;;;;17.10;9.17;;;7.10;99.90;6.20;101641;;;;582917;242;24077;-75
2023/04/18 01:47:07;;;;;;;20.60;10.63;;;7.10;99.90;6.20;101652;;;;581780;242;24075;-73
2023/04/18 01:49:35;;;;;;;15.70;10.43;;;7.10;99.90;6.30;101645;;;;582503;242;25110;-75
2023/04/18 01:52:03;;;;;;;17.63;9.67;;;7.10;99.90;6.30;101648;;;;582706;242;24092;-74
2023/04/18 01:54:31;;;;;;;12.93;8.87;;;7.10;99.90;6.30;101645;;;;582551;242;24050;-77
2023/04/18 01:56:59;;;;;;;17.13;9.27;;;7.10;99.90;6.30;101643;;;;582693;238;24074;-75
2023/04/18 01:59:26;;;;;;;11.33;8.17;;;7.10;99.90;6.30;101636;;;;582585;242;24099;-75
2023/04/18 02:01:54;;;;;;;15.00;9.00;;;7.10;99.90;6.30;101634;;;;582513;242;24064;-78
2023/04/18 02:04:22;;;;;;;13.80;9.40;;;7.10;99.90;6.30;101632;;;;582568;242;24077;-77
2023/04/18 02:06:50;;;;;;;15.50;9.47;;;7.10;99.90;6.30;101629;;;;582461;242;24083;-76
2023/04/18 02:09:18;;;;;;;12.70;8.93;;;7.10;99.90;6.30;101630;;;;587213;242;24060;-78
2023/04/18 02:11:46;;;;;;;15.37;9.50;;;7.10;99.90;6.30;101627;;;;582954;242;24092;-76
2023/04/18 02:14:14;;;;;;;16.10;9.37;;;7.10;99.90;6.30;101627;;;;583097;240;25131;-74
2023/04/18 02:16:46;;;;;;;17.83;9.10;;;7.20;99.90;6.30;101623;;;;584326;242;24057;-75
2023/04/18 02:19:10;;;;;;;16.80;9.00;;;7.10;99.90;6.40;101624;;;;581957;242;25126;-77
2023/04/18 02:21:40;;;;;;;15.43;9.70;;;7.20;99.90;6.40;101620;;;;583740;242;24063;-79
2023/04/18 02:24:07;;;;;;;14.93;9.73;;;7.10;99.90;6.40;101615;;;;583605;242;24189;-77
2023/04/18 02:26:35;;;;;;;16.53;10.20;;;7.10;99.90;6.40;101613;;;;581505;242;24042;-79
2023/04/18 02:29:03;;;;;;;15.33;10.97;;;7.20;99.90;6.40;101612;;;;583488;242;24088;-79
2023/04/18 02:31:31;;;;;;;18.50;9.43;;;7.20;99.90;6.40;101605;;;;583451;242;24076;-80
2023/04/18 02:34:03;;;;;;;20.63;12.27;;;7.10;99.90;6.40;101614;;;;583193;242;24085;-77
2023/04/18 02:36:27;;;;;;;14.57;9.27;;;7.20;99.90;6.40;101607;;;;583013;242;24076;-79
2023/04/18 02:38:55;;;;;;;19.07;11.47;;;7.10;99.90;6.40;101605;;;;583271;242;24107;-75
2023/04/18 02:41:23;;;;;;;22.77;10.57;;;7.20;99.90;6.40;101613;;;;583191;242;24148;-75
2023/04/18 02:43:51;;;;;;;24.40;10.63;;;7.20;99.90;6.40;101609;;;;583232;242;24141;-76
2023/04/18 02:46:19;;;;;;;16.07;10.10;;;7.20;99.90;6.40;101606;;;;583216;242;24076;-76
2023/04/18 02:48:47;;;;;;;26.17;16.33;;;7.20;99.90;6.40;101622;;;;577667;242;46049;-76
2023/04/18 02:51:15;;;;;;;21.53;12.87;;;7.20;99.90;6.40;101608;;;;582741;242;24102;-74
2023/04/18 02:53:43;;;;;;;19.57;11.57;;;7.20;99.90;6.40;101614;;;;582542;242;24069;-75
2023/04/18 02:56:11;;;;;;;12.73;9.50;;;7.20;99.90;6.40;101621;;;;582635;242;24069;-78
2023/04/18 02:58:39;;;;;;;18.47;8.83;;;7.20;99.90;6.40;101621;;;;582428;242;24062;-75
2023/04/18 03:01:07;;;;;;;13.63;9.73;;;7.20;99.90;6.40;101617;;;;582541;242;25130;-76
2023/04/18 03:03:35;;;;;;;14.57;8.57;;;7.20;99.90;6.40;101626;;;;582618;242;24071;-77
2023/04/18 03:06:02;;;;;;;12.47;9.13;;;7.20;99.90;6.40;101621;;;;582502;242;24090;-77
2023/04/18 03:08:30;;;;;;;18.37;10.77;;;7.20;99.90;6.40;101616;;;;582950;242;24048;-75
2023/04/18 03:11:01;;;;;;;15.83;10.33;;;7.20;99.90;6.40;101633;;;;583086;242;24057;-77
2023/04/18 03:13:26;;;;;;;23.17;15.23;;;7.20;99.90;6.40;101622;;;;577778;242;35123;-77
2023/04/18 03:15:54;;;;;;;21.23;15.82;;;11.60;99.90;6.40;101635;;;;577943;242;35214;-75
2023/04/18 03:18:26;;;;;;;20.20;15.55;;;7.30;99.90;6.40;101624;;;;574974;242;46132;-78
2023/04/18 03:20:50;;;;;;;16.93;12.93;;;7.30;99.90;6.50;101627;;;;582596;242;24069;-79
2023/04/18 03:23:19;;;;;;;14.50;9.87;;;7.20;99.90;6.40;101627;;;;582912;242;24076;-75
2023/04/18 03:25:46;;;;;;;16.70;9.47;;;7.30;99.90;6.40;101624;;;;583148;240;24079;-79
2023/04/18 03:28:14;;;;;;;12.77;8.43;;;7.30;99.90;6.50;101630;;;;584490;242;24060;-75
2023/04/18 03:30:42;;;;;;;14.60;10.37;;;7.30;99.90;6.40;101632;;;;584052;242;24034;-78
2023/04/18 03:33:10;;;;;;;11.97;8.93;;;7.30;99.90;6.40;101633;;;;583889;242;24120;-78
2023/04/18 03:35:38;;;;;;;16.77;9.53;;;7.30;99.90;6.40;101630;;;;583703;242;24078;-74
2023/04/18 03:38:06;;;;;;;18.87;9.77;;;7.20;99.90;6.40;101631;;;;583519;242;24076;-76
2023/04/18 03:40:34;;;;;;;14.00;9.43;;;7.20;99.90;6.30;101637;;;;583624;242;24130;-77
2023/04/18 03:43:02;;;;;;;13.33;8.83;;;7.20;99.90;6.30;101638;;;;583647;242;24358;-77
2023/04/18 03:45:30;;;;;;;21.73;9.57;;;7.10;99.90;6.20;101644;;;;583323;242;24071;-76
2023/04/18 03:47:58;;;;;;;14.10;9.40;;;7.00;99.90;6.20;101628;;;;583233;242;24177;-79
2023/04/18 03:50:26;;;;;;;22.07;10.40;;;7.00;99.90;6.10;101641;;;;582906;242;24101;-78
2023/04/18 03:52:53;;;;;;;16.77;10.17;;;6.90;99.90;6.10;101625;;;;587110;242;24115;-79
2023/04/18 03:55:21;;;;;;;17.63;10.47;;;6.90;99.90;6.10;101631;;;;583186;242;24060;-75
2023/04/18 03:57:49;;;;;;;16.07;10.73;;;6.90;99.90;6.10;101627;;;;582769;242;24083;-78
2023/04/18 04:00:17;;;;;;;17.43;11.27;;;6.90;99.90;6.20;101626;;;;582741;242;24076;-79
2023/04/18 04:02:46;;;;;;;11.93;8.30;;;7.00;99.90;6.20;101635;;;;582749;242;24078;-79
2023/04/18 04:05:14;;;;;;;18.00;11.40;;;7.00;99.90;6.20;101636;;;;582498;242;24056;-79
2023/04/18 04:07:44;;;;;;;15.70;10.40;;;7.00;99.90;6.30;101640;;;;582692;242;24120;-76
2023/04/18 04:10:10;;;;;;;16.03;10.57;;;7.10;99.90;6.30;101647;;;;582427;242;24121;-78
2023/04/18 04:12:39;;;;;;;14.33;10.03;;;7.10;99.90;6.30;101644;;;;582483;242;24103;-79
2023/04/18 04:15:11;;;;;;;17.60;11.50;;;7.10;99.90;6.30;101652;;;;582514;242;24043;-76
2023/04/18 04:17:35;;;;;;;19.67;10.60;;;7.10;99.90;6.30;101652;;;;582472;242;24061;-79
2023/04/18 04:20:04;;;;;;;16.00;11.03;;;7.10;99.90;6.30;101652;;;;582632;242;24059;-77
2023/04/18 04:22:31;;;;;;;15.50;10.77;;;7.10;99.90;6.20;101658;;;;582507;242;24070;-76
2023/04/18 04:24:59;;;;;;;15.53;9.70;;;7.00;99.90;6.30;101661;;;;582587;242;24081;-78
2023/04/18 04:27:27;;;;;;;23.50;15.67;;;7.00;99.90;6.30;101654;;;;577599;242;35101;-76
2023/04/18 04:29:56;;;;;;;18.83;11.90;;;7.10;99.90;6.30;101651;;;;582506;242;24061;-78
2023/04/18 04:32:24;;;;;;;21.77;10.50;;;7.10;99.90;6.30;101659;;;;582639;242;24102;-76
2023/04/18 04:34:52;;;;;;;16.97;10.53;;;7.10;99.90;6.40;101650;;;;582510;242;25085;-76
2023/04/18 04:37:20;;;;;;;21.27;12.40;;;7.10;99.90;6.40;101652;;;;582582;240;24110;-74
2023/04/18 04:39:48;;;;;;;16.73;10.53;;;7.20;99.90;6.50;101658;;;;584025;242;24060;-74
2023/04/18 04:42:19;;;;;;;18.43;11.23;;;7.30;99.90;6.70;101662;;;;583467;242;24052;-74
2023/04/18 04:44:44;;;;;;;21.90;10.63;;;7.50;99.90;7.20;101666;;;;583161;242;24143;-74
2023/04/18 04:47:11;;;;;;;12.30;9.47;;;7.80;99.90;7.40;101667;;;;582949;242;24057;-75
2023/04/18 04:49:39;;;;;;;19.13;10.90;;;8.10;99.90;7.90;101666;;;;583259;242;24103;-75
2023/04/18 04:52:07;;;;;;;16.83;10.80;;;8.60;99.90;8.40;101670;;;;583469;242;24088;-76
2023/04/18 04:54:35;;;;;;;17.53;9.67;;;9.10;99.90;9.00;101678;;;;583565;242;24136;-74
2023/04/18 04:57:07;;;;;;;15.43;9.83;;;9.60;99.90;9.50;101675;;;;583263;238;24078;-74
2023/04/18 04:59:34;;;;;;;15.57;10.83;;;10.20;99.90;10.00;101675;;;;582672;242;24071;-75
2023/04/18 05:01:59;;;;;;;14.13;10.50;;;10.70;99.90;10.70;101679;;;;582730;242;24061;-74
2023/04/18 05:04:27;;;;;;;14.97;10.00;;;11.30;99.90;10.70;101679;;;;582768;242;24054;-74
2023/04/18 05:06:55;;;;;;;13.73;9.23;;;11.50;99.90;10.80;101677;;;;590124;242;24056;-77
2023/04/18 05:09:23;;;;;;;10.50;8.47;;;11.60;99.90;11.10;101688;;;;582291;242;24075;-75
2023/04/18 05:11:51;;;;;;;11.07;8.50;;;11.90;99.90;11.20;101690;;;;568428;246;24127;-74
2023/04/18 05:14:19;;;;;;;11.40;8.67;;;12.00;99.90;11.00;101684;;;;582761;242;24116;-77
2023/04/18 05:16:47;;;;;;;13.33;8.70;;;11.90;99.90;10.70;101679;;;;582450;242;24076;-75
2023/04/18 05:19:14;;;;;;;13.33;9.03;;;11.60;99.90;10.40;101686;;;;582640;242;24046;-75
2023/04/18 05:21:42;;;;;;;14.87;8.93;;;11.30;99.90;10.20;101682;;;;582575;242;24058;-76
2023/04/18 05:24:10;;;;;;;11.50;7.30;;;11.10;99.90;10.10;101680;;;;582961;242;24142;-76
2023/04/18 05:26:41;;;;;;;16.50;11.10;;;10.90;99.90;10.10;101683;;;;577602;242;35146;-76
2023/04/18 05:29:06;;;;;;;10.73;9.00;;;10.80;99.90;10.20;101682;;;;582205;242;24082;-76
2023/04/18 05:31:34;;;;;;;10.67;7.63;;;10.90;99.90;10.70;101689;;;;582680;242;24048;-75
2023/04/18 05:34:02;;;;;;;13.07;8.43;;;11.30;99.90;11.20;101683;;;;582478;242;24065;-77
2023/04/18 05:36:33;;;;;;;12.60;8.73;;;11.80;99.90;11.70;101683;;;;583214;242;24046;-77
2023/04/18 05:38:58;;;;;;;12.40;8.87;;;12.30;99.90;12.20;101677;;;;589135;242;24057;-77
2023/04/18 05:41:26;;;;;;;10.77;8.53;;;12.70;99.90;12.40;101687;;;;583028;242;24060;-78
2023/04/18 05:43:57;;;;;;;10.70;9.03;;;13.10;99.90;12.60;101682;;;;583280;242;24050;-78
2023/04/18 05:46:22;;;;;;;12.30;8.60;;;13.30;99.90;13.20;101680;;;;582702;242;24097;-77
2023/04/18 05:48:49;;;;;;;10.47;8.03;;;13.70;99.90;13.50;101686;;;;582711;240;24057;-75
2023/04/18 05:51:17;;;;;;;11.33;8.53;;;14.10;99.90;13.70;101683;;;;584220;242;24060;-74
2023/04/18 05:53:45;;;;;;;11.90;8.77;;;14.40;99.90;14.60;101685;;;;584232;242;24053;-75
2023/04/18 05:56:13;;;;;;;9.93;8.43;;;15.10;99.90;14.80;101691;;;;583791;242;24036;-75
2023/04/18 05:58:41;;;;;;;10.13;8.63;;;15.40;99.90;14.80;101695;;;;583268;242;24113;-74
2023/04/18 06:01:09;;;;;;;17.03;8.77;;;15.60;99.90;14.60;101686;;;;583566;242;24068;-77
2023/04/18 06:03:37;;;;;;;12.17;8.10;;;15.30;99.90;14.60;101692;;;;583486;242;24072;-80
2023/04/18 06:06:05;;;;;;;10.13;8.53;;;15.30;99.90;15.70;101698;;;;580671;242;24073;-78
2023/04/18 06:08:33;;;;;;;9.37;7.93;;;16.10;99.90;17.20;101701;;;;582928;242;24081;-78
2023/04/18 06:11:01;;;;;;;13.53;7.97;;;17.50;99.90;18.90;101697;;;;569627;247;24083;-77
2023/04/18 06:13:32;;;;;;;9.70;7.70;;;19.10;99.90;20.70;101704;;;;568356;245;24090;-76
2023/04/18 06:15:57;;;;;;;9.63;7.63;;;21.00;99.90;21.90;101702;;;;585684;242;24054;-79
2023/04/18 06:18:25;;;;;;;9.70;6.93;;;23.00;96.70;22.50;101718;;;;582869;242;24054;-77
2023/04/18 06:20:54;;;;;;;10.17;7.37;;;23.50;91.30;22.90;101718;;;;582838;242;24069;-78
2023/04/18 06:23:22;;;;;;;8.30;7.57;;;23.40;91.30;22.10;101713;;;;586659;242;23113;-76
2023/04/18 06:25:50;;;;;;;12.60;7.73;;;23.10;90.20;21.70;101713;;;;582770;242;23075;-79
2023/04/18 06:28:18;;;;;;;12.77;8.20;;;22.70;90.30;21.30;101708;;;;582483;242;24033;-78
2023/04/18 06:30:46;;;;;;;15.53;7.67;;;22.30;90.70;20.90;101712;;;;582680;242;24058;-77
2023/04/18 06:33:14;;;;;;;9.63;7.90;;;21.80;90.00;20.20;101709;;;;582492;242;24064;-80
2023/04/18 06:35:44;;;;;;;7.90;7.10;;;21.20;90.40;19.60;101717;;;;582657;242;24046;-80
2023/04/18 06:38:15;;;;;;;11.93;7.10;;;20.70;90.90;19.10;101714;;;;582412;242;24054;-76
2023/04/18 06:40:40;;;;;;;8.50;7.50;;;20.10;92.10;18.40;101719;;;;591414;242;24056;-78
2023/04/18 06:43:08;;;;;;;12.37;7.70;;;19.40;92.90;18.10;101714;;;;582614;242;24065;-77
2023/04/18 06:45:36;;;;;;;9.57;8.63;;;19.00;94.00;18.10;101717;;;;577460;242;35147;-75
2023/04/18 06:48:04;;;;;;;12.13;7.10;;;18.90;94.70;18.00;101718;;;;582777;242;24075;-80
2023/04/18 06:50:35;;;;;;;10.87;7.40;;;18.60;95.00;17.90;101728;;;;582634;242;24049;-77
2023/04/18 06:53:01;;;;;;;7.30;6.60;;;18.60;95.00;17.70;101726;;;;579580;242;24056;-79
2023/04/18 06:55:28;;;;;;;10.70;7.77;;;18.50;95.40;17.40;101730;;;;582928;242;24046;-78
2023/04/18 06:57:56;;;;;;;7.87;6.83;;;18.20;95.70;16.80;101728;;;;582777;242;23082;-75
2023/04/18 07:00:24;;;;;;;8.50;6.93;;;17.80;96.30;16.30;101736;;;;582980;240;24066;-76
2023/04/18 07:02:52;;;;;;;8.67;6.93;;;17.20;97.30;16.10;101739;;;;584485;242;24051;-78
2023/04/18 07:05:20;;;;;;;6.90;6.30;;;16.90;98.30;15.90;101736;;;;584029;242;24050;-76
2023/04/18 07:07:48;;;;;;;10.80;7.20;;;16.70;98.90;15.50;101730;;;;583768;242;24049;-80
2023/04/18 07:10:16;;;;;;;7.13;6.43;;;16.40;99.80;16.50;101734;;;;583731;242;24106;-76
2023/04/18 07:12:44;;;;;;;23.37;8.13;;;16.90;99.90;17.40;101739;;;;583485;242;24100;-80
2023/04/18 07:15:11;;;;;;;9.00;6.63;;;17.80;99.80;19.80;101740;;;;568646;246;24075;-80
2023/04/18 07:17:39;;;;;;;7.03;6.33;;;19.80;98.00;21.70;101748;;;;581854;242;24061;-79
2023/04/18 07:20:08;;;;;;;8.20;6.53;;;21.80;93.90;23.70;101756;;;;582821;242;24101;-77
2023/04/18 07:22:36;;;;;;;7.43;6.63;;;23.80;90.30;25.40;101764;;;;582963;242;24068;-79
2023/04/18 07:25:07;;;;;;;7.20;6.50;;;25.50;80.90;25.50;101766;;;;582915;242;23266;-76
2023/04/18 07:27:32;;;;;;;13.67;6.63;;;26.10;73.20;25.70;101764;;;;582411;242;23090;-77
2023/04/18 07:29:59;;;;;;;7.30;6.63;;;26.40;71.10;25.60;101767;;;;582867;242;24108;-77
2023/04/18 07:32:27;;;;;;;6.83;6.23;;;26.40;67.90;24.70;101764;;;;582797;242;23067;-76
2023/04/18 07:34:56;;;;;;;8.17;6.80;;;25.90;67.10;23.80;101764;;;;582914;242;23055;-75
2023/04/18 07:37:24;;;;;;;8.20;6.27;;;24.50;69.90;23.50;101760;;;;582692;242;23080;-76
2023/04/18 07:39:56;;;;;;;8.03;6.50;;;24.60;70.10;24.10;101762;;;;582361;242;24109;-76
2023/04/18 07:42:21;;;;;;;6.63;6.13;;;24.60;70.00;24.60;101768;;;;582530;242;23075;-76
2023/04/18 07:44:48;;;;;;;7.50;6.87;;;25.10;68.40;25.00;101767;;;;582548;242;23130;-76
2023/04/18 07:47:19;;;;;;;6.77;6.27;;;25.50;68.30;26.30;101774;;;;582663;242;23076;-75
2023/04/18 07:49:44;;;;;;;7.10;6.60;;;26.60;66.20;27.50;101777;;;;582515;242;23116;-76
2023/04/18 07:52:12;;;;;;;11.55;7.68;;;27.90;62.50;27.80;101781;;;;580955;242;23074;-76
2023/04/18 07:54:40;;;;;;;25.50;8.50;;;28.40;59.80;27.50;101781;;;;582599;242;23062;-77
2023/04/18 07:57:09;;;;;;;15.55;6.90;;;28.30;59.40;27.20;101788;;;;582915;238;23072;-75
2023/04/18 07:59:36;;;;;;;12.27;7.10;;;28.10;59.00;26.60;101783;;;;579990;242;23063;-76
2023/04/18 08:02:04;;;;;;;8.40;7.60;;;27.50;59.70;26.70;101785;;;;577831;242;35174;-77
2023/04/18 08:04:32;;;;;;;6.82;6.07;;;27.40;59.10;26.40;101787;;;;582962;242;23048;-80
2023/04/18 08:07:00;;;;;;;7.03;6.55;;;27.20;59.20;25.40;101784;;;;582968;242;23062;-79
2023/04/18 08:09:28;;;;;;;10.17;6.97;;;26.50;59.80;24.20;101790;;;;583015;242;23104;-79
2023/04/18 08:11:56;;;;;;;7.97;7.37;;;25.40;61.50;23.60;101790;;;;582945;242;23068;-79
2023/04/18 08:14:23;;;;;;;7.43;6.93;;;24.60;63.70;24.00;101794;;;;584550;242;23083;-79
2023/04/18 08:16:51;;;;;;;6.87;6.33;;;24.70;64.80;25.10;101796;;;;569186;246;23109;-78
2023/04/18 08:19:20;;;;;;;8.13;7.43;;;26.30;60.90;25.60;101796;;;;583395;242;23153;-75
2023/04/18 08:21:48;;;;;;;7.87;7.07;;;26.30;60.90;25.80;101802;;;;583459;242;24079;-78
2023/04/18 08:24:16;;;;;;;11.73;7.73;;;26.40;59.80;25.50;101806;;;;587295;237;23168;-78
2023/04/18 08:26:44;;;;;;;13.27;7.60;;;26.40;59.50;24.80;101800;;;;593365;237;23092;-78
2023/04/18 08:29:12;;;;;;;7.97;6.80;;;25.90;59.70;24.40;101797;;;;586536;242;24053;-77
2023/04/18 08:31:40;;;;;;;8.37;6.70;;;25.40;61.60;25.30;101786;;;;583981;242;23059;-76
2023/04/18 08:34:08;;;;;;;6.87;6.33;;;25.80;62.00;26.80;101788;;;;596518;237;24069;-77
2023/04/18 08:36:35;;;;;;;7.30;6.80;;;27.10;59.80;27.80;101800;;;;595278;237;23060;-77
2023/04/18 08:39:05;;;;;;;8.65;6.75;;;28.20;56.60;28.00;101804;;;;590802;243;23068;-77
2023/04/18 08:41:31;;;;;;;7.40;6.80;;;28.70;55.90;27.40;101813;;;;595427;237;24074;-77
2023/04/18 08:43:59;;;;;;;7.77;6.90;;;28.50;55.40;26.40;101811;;;;584184;242;23067;-77
2023/04/18 08:46:28;;;;;;;9.20;7.45;;;27.70;55.90;26.50;101813;;;;586239;242;23076;-77
2023/04/18 08:48:58;;;;;;;7.55;6.45;;;27.40;56.30;26.80;101823;;;;595117;237;24087;-77
2023/04/18 08:51:23;;;;;;;7.82;6.53;;;27.70;56.50;27.10;101823;;;;593290;239;23074;-77
2023/04/18 08:53:55;;;;;;;6.62;6.12;;;28.10;56.10;27.40;101814;;;;592702;242;23064;-78
2023/04/18 08:56:21;;;;;;;6.80;6.25;;;28.20;56.10;26.70;101816;;;;583206;242;23104;-77
2023/04/18 08:58:48;;;;;;;6.75;6.20;;;27.80;55.50;26.10;101815;;;;592135;239;23049;-77
2023/04/18 09:01:16;;;;;;;8.77;6.50;;;27.20;56.30;25.60;101813;;;;591825;239;23075;-77
2023/04/18 09:03:43;;;;;;;7.07;6.43;;;26.70;56.70;24.90;101812;;;;591474;239;23138;-78
2023/04/18 09:06:15;;;;;;;6.57;6.07;;;26.10;57.80;25.40;101814;;;;591339;239;23038;-78
2023/04/18 09:08:42;;;;;;;7.07;6.47;;;26.10;58.40;26.00;101813;;;;593990;239;23038;-77
2023/04/18 09:11:28;;;;;;;7.53;6.67;;;26.70;57.30;25.90;101823;;;;596772;236;24043;-76
2023/04/18 09:13:57;;;;;;;6.67;6.20;;;26.50;56.80;25.50;101809;;;;589220;239;23042;-77
2023/04/18 09:16:24;;;;;;;8.30;6.47;;;26.50;56.80;25.30;101814;;;;591284;239;24066;-78
2023/04/18 09:19:08;;;;;;;7.67;5.77;;;26.20;57.30;25.30;101811;;;;591537;239;23033;-76
2023/04/18 09:21:35;;;;;;;6.43;5.93;;;26.20;57.70;25.60;101811;;;;591105;239;24046;-77
2023/04/18 09:24:06;;;;;;;7.00;6.40;;;26.50;57.70;26.00;101810;;;;591738;238;23042;-76
2023/04/18 09:26:35;;;;;;;7.40;6.07;;;26.90;57.50;25.60;101816;;;;592215;238;24045;-78
2023/04/18 09:29:02;;;;;;;7.10;6.40;;;26.60;56.90;26.30;101811;;;;600446;234;24034;-78
2023/04/18 09:31:30;;;;;;;7.17;6.03;;;27.80;55.30;27.10;101811;;;;592266;238;24079;-77
2023/04/18 09:34:00;;;;;;;7.03;6.43;;;27.80;55.30;27.90;101806;;;;592223;238;23048;-76
2023/04/18 09:36:26;;;;;;;6.75;6.07;;;28.70;53.50;28.70;101819;;;;592010;238;23042;-77
2023/04/18 09:38:55;;;;;;;6.35;5.85;;;30.20;52.10;29.10;101810;;;;591821;238;23046;-78
2023/04/18 09:41:22;;;;;;;6.87;6.20;;;30.10;52.00;28.40;101837;;;;592065;238;23043;-77
2023/04/18 09:43:51;;;;;;;7.65;6.97;;;29.90;51.80;28.50;101819;;;;591669;237;23037;-77
2023/04/18 09:46:20;;;;;;;9.30;6.62;;;29.80;51.50;28.40;101832;;;;590235;239;23074;-77
2023/04/18 09:48:46;;;;;;;7.90;7.10;;;29.80;50.90;27.80;101817;;;;591674;239;23032;-76
2023/04/18 09:51:18;;;;;;;7.05;6.40;;;29.30;51.10;27.90;101808;;;;591757;239;23048;-77
2023/04/18 09:53:52;;;;;;;6.78;6.00;;;29.40;51.50;28.10;101821;;;;591152;238;23104;-76
2023/04/18 09:56:25;;;;;;;7.05;6.15;;;29.50;52.00;28.10;101819;;;;591668;239;24089;-78
2023/04/18 09:58:56;;;;;;;7.32;6.57;;;29.50;51.70;28.20;101815;;;;591275;239;23095;-77
2023/04/18 10:01:24;;;;;;;6.12;5.68;;;29.50;52.50;28.20;101814;;;;591392;239;23040;-76
2023/04/18 10:03:52;;;;;;;11.23;6.55;;;29.60;51.70;28.10;101819;;;;591488;239;23094;-78
2023/04/18 10:06:20;;;;;;;7.37;6.82;;;29.50;51.70;27.80;101805;;;;591679;239;24186;-77
2023/04/18 10:08:48;;;;;;;10.07;7.35;;;29.40;51.80;27.10;101813;;;;584325;239;34975;-78
2023/04/18 10:11:16;;;;;;;7.12;6.62;;;28.70;52.20;25.10;101810;;;;591638;239;23106;-76
2023/04/18 10:13:43;;;;;;;8.68;7.87;;;27.20;54.00;23.40;101806;;;;586014;239;35024;-77
2023/04/18 10:16:15;;;;;;;8.75;8.05;;;25.40;56.80;22.00;101800;;;;586304;239;34951;-77
2023/04/18 10:18:39;;;;;;;7.93;7.13;;;23.80;60.30;21.20;101794;;;;591285;238;23034;-77
2023/04/18 10:21:07;;;;;;;12.77;7.70;;;22.60;63.00;20.60;101796;;;;589009;239;24048;-77
2023/04/18 10:23:35;;;;;;;9.30;7.77;;;21.80;65.40;20.00;101798;;;;589218;239;24054;-78
2023/04/18 10:26:07;;;;;;;9.57;7.90;;;21.00;67.50;19.50;101797;;;;591408;239;24098;-76
2023/04/18 10:28:52;;;;;;;8.73;7.93;;;20.50;69.60;19.00;101796;;;;600353;239;24066;-76
2023/04/18 10:31:21;;;;;;;13.23;7.80;;;19.50;73.70;18.60;101794;;;;593920;239;24164;-76
2023/04/18 10:33:48;;;;;;;9.10;7.47;;;19.40;72.70;18.10;101794;;;;590991;239;24059;-77
2023/04/18 10:36:20;;;;;;;12.20;7.70;;;19.00;74.90;17.80;101793;;;;592178;238;24080;-76
2023/04/18 10:38:50;;;;;;;10.33;7.80;;;18.60;77.00;17.50;101794;;;;592496;238;24011;-77
2023/04/18 10:41:31;;;;;;;9.47;8.47;;;18.00;79.60;17.20;101780;;;;592165;238;24062;-77
2023/04/18 10:44:21;;;;;;;11.20;9.17;;;18.00;79.60;16.50;101795;;;;591640;238;23087;-77
2023/04/18 10:46:51;;;;;;;10.57;8.40;;;17.40;81.50;15.90;101784;;;;597859;235;24019;-77
2023/04/18 10:49:19;;;;;;;12.17;8.60;;;16.80;84.50;15.40;101788;;;;591741;238;24108;-77
2023/04/18 10:51:50;;;;;;;14.80;8.63;;;16.30;86.70;15.10;101789;;;;591675;238;24073;-77
2023/04/18 10:54:36;;;;;;;12.53;8.90;;;15.90;89.50;14.70;101778;;;;591515;239;24075;-77
2023/04/18 10:57:04;;;;;;;15.63;8.33;;;15.30;92.30;14.50;101779;;;;598374;239;24033;-77
2023/04/18 10:59:35;;;;;;;10.03;8.23;;;15.20;92.70;14.30;101774;;;;591432;239;24016;-78
2023/04/18 11:02:21;;;;;;;9.37;7.70;;;15.00;94.50;14.30;101775;;;;591349;239;24074;-77
2023/04/18 11:04:52;;;;;;;10.40;7.87;;;15.00;96.10;14.30;101769;;;;591888;239;24156;-77
2023/04/18 11:07:36;;;;;;;9.90;7.97;;;14.70;99.10;14.00;101771;;;;591551;239;24027;-78
2023/04/18 11:10:08;;;;;;;11.03;8.87;;;14.40;99.90;13.70;101757;;;;601279;237;24031;-78
2023/04/18 11:12:35;;;;;;;11.70;8.37;;;14.40;99.90;13.40;101760;;;;591288;239;24033;-76
2023/04/18 11:15:03;;;;;;;9.70;8.37;;;14.10;99.90;13.00;101751;;;;593837;239;24047;-76